sensor_id;sensor_type;location;lat;lon;timestamp;temperature;humidity
4749;DHT22;2388;53.582;9.962;2023-03-01T00:01:10;3.70;99.90
4749;DHT22;2388;53.582;9.962;2023-03-01T00:03:36;3.60;99.90
4749;DHT22;2388;53.582;9.962;2023-03-01T00:06:02;3.70;99.90
4749;DHT22;2388;53.582;9.962;2023-03-01T00:08:28;3.70;99.90
4749;DHT22;2388;53.582;9.962;2023-03-01T00:11:11;3.70;99.90
4749;DHT22;2388;53.582;9.962;2023-03-01T00:13:37;3.70;99.90
4749;DHT22;2388;53.582;9.962;2023-03-01T00:16:07;3.60;99.90
4749;DHT22;2388;53.582;9.962;2023-03-01T00:18:33;3.60;99.90
4749;DHT22;2388;53.582;9.962;2023-03-01T00:20:59;3.60;99.90
4749;DHT22;2388;53.582;9.962;2023-03-01T00:23:25;3.60;99.90
4749;DHT22;2388;53.582;9.962;2023-03-01T00:25:50;3.50;99.90
4749;DHT22;2388;53.582;9.962;2023-03-01T00:28:17;3.50;99.90
4749;DHT22;2388;53.582;9.962;2023-03-01T00:30:42;3.50;99.90
4749;DHT22;2388;53.582;9.962;2023-03-01T00:33:08;3.50;99.90
4749;DHT22;2388;53.582;9.962;2023-03-01T00:35:34;3.60;99.90
4749;DHT22;2388;53.582;9.962;2023-03-01T00:38:00;3.50;99.90
4749;DHT22;2388;53.582;9.962;2023-03-01T00:40:26;3.50;99.90
4749;DHT22;2388;53.582;9.962;2023-03-01T00:42:52;3.50;99.90
4749;DHT22;2388;53.582;9.962;2023-03-01T00:45:18;3.50;99.90
4749;DHT22;2388;53.582;9.962;2023-03-01T00:47:43;3.50;99.90
4749;DHT22;2388;53.582;9.962;2023-03-01T00:50:10;3.50;99.90
4749;DHT22;2388;53.582;9.962;2023-03-01T00:52:36;3.50;99.90
4749;DHT22;2388;53.582;9.962;2023-03-01T00:55:02;3.60;99.90
4749;DHT22;2388;53.582;9.962;2023-03-01T00:57:27;3.60;99.90
4749;DHT22;2388;53.582;9.962;2023-03-01T00:59:53;3.50;99.90
4749;DHT22;2388;53.582;9.962;2023-03-01T01:02:19;3.60;99.90
4749;DHT22;2388;53.582;9.962;2023-03-01T01:04:46;3.50;99.90
4749;DHT22;2388;53.582;9.962;2023-03-01T01:07:12;3.50;99.90
4749;DHT22;2388;53.582;9.962;2023-03-01T01:09:38;3.60;99.90
4749;DHT22;2388;53.582;9.962;2023-03-01T01:12:03;3.50;99.90
4749;DHT22;2388;53.582;9.962;2023-03-01T01:14:29;3.50;99.90
4749;DHT22;2388;53.582;9.962;2023-03-01T01:16:55;3.60;99.90
4749;DHT22;2388;53.582;9.962;2023-03-01T01:19:21;3.50;99.90
4749;DHT22;2388;53.582;9.962;2023-03-01T01:21:47;3.50;99.90
4749;DHT22;2388;53.582;9.962;2023-03-01T01:24:14;3.50;99.90
4749;DHT22;2388;53.582;9.962;2023-03-01T01:26:40;3.60;99.90
4749;DHT22;2388;53.582;9.962;2023-03-01T01:29:06;3.60;99.90
4749;DHT22;2388;53.582;9.962;2023-03-01T01:31:33;3.50;99.90
4749;DHT22;2388;53.582;9.962;2023-03-01T01:34:01;3.50;99.90
4749;DHT22;2388;53.582;9.962;2023-03-01T01:36:27;3.50;99.90
4749;DHT22;2388;53.582;9.962;2023-03-01T01:38:52;3.50;99.90
4749;DHT22;2388;53.582;9.962;2023-03-01T01:41:19;3.50;99.90
4749;DHT22;2388;53.582;9.962;2023-03-01T01:43:47;3.50;99.90
4749;DHT22;2388;53.582;9.962;2023-03-01T01:46:30;3.40;99.90
4749;DHT22;2388;53.582;9.962;2023-03-01T01:49:03;3.50;99.90
4749;DHT22;2388;53.582;9.962;2023-03-01T01:51:35;3.40;99.90
4749;DHT22;2388;53.582;9.962;2023-03-01T01:54:08;3.40;99.90
4749;DHT22;2388;53.582;9.962;2023-03-01T01:56:36;3.40;99.90
4749;DHT22;2388;53.582;9.962;2023-03-01T01:59:03;3.40;99.90
4749;DHT22;2388;53.582;9.962;2023-03-01T02:01:29;3.40;99.90
4749;DHT22;2388;53.582;9.962;2023-03-01T02:03:54;3.40;99.90
4749;DHT22;2388;53.582;9.962;2023-03-01T02:06:35;3.40;99.90
4749;DHT22;2388;53.582;9.962;2023-03-01T02:09:10;3.30;99.90
4749;DHT22;2388;53.582;9.962;2023-03-01T02:11:37;3.30;99.90
4749;DHT22;2388;53.582;9.962;2023-03-01T02:14:03;3.30;99.90
4749;DHT22;2388;53.582;9.962;2023-03-01T02:16:29;3.20;99.90
4749;DHT22;2388;53.582;9.962;2023-03-01T02:18:56;3.20;99.90
4749;DHT22;2388;53.582;9.962;2023-03-01T02:21:41;3.30;99.90
4749;DHT22;2388;53.582;9.962;2023-03-01T02:24:37;3.30;99.90
4749;DHT22;2388;53.582;9.962;2023-03-01T02:29:41;3.30;99.90
4749;DHT22;2388;53.582;9.962;2023-03-01T02:32:09;3.20;99.90
4749;DHT22;2388;53.582;9.962;2023-03-01T02:34:37;3.20;99.90
4749;DHT22;2388;53.582;9.962;2023-03-01T02:37:08;3.20;99.90
4749;DHT22;2388;53.582;9.962;2023-03-01T02:39:42;3.30;99.90
4749;DHT22;2388;53.582;9.962;2023-03-01T02:42:12;3.30;99.90
4749;DHT22;2388;53.582;9.962;2023-03-01T02:44:38;3.30;99.90
4749;DHT22;2388;53.582;9.962;2023-03-01T02:47:04;3.30;99.90
4749;DHT22;2388;53.582;9.962;2023-03-01T02:49:33;3.20;99.90
4749;DHT22;2388;53.582;9.962;2023-03-01T02:54:53;3.10;99.90
4749;DHT22;2388;53.582;9.962;2023-03-01T02:57:22;3.10;99.90
4749;DHT22;2388;53.582;9.962;2023-03-01T02:59:49;3.10;99.90
4749;DHT22;2388;53.582;9.962;2023-03-01T03:02:23;3.10;99.90
4749;DHT22;2388;53.582;9.962;2023-03-01T03:05:19;3.10;99.90
4749;DHT22;2388;53.582;9.962;2023-03-01T03:07:47;3.00;99.90
4749;DHT22;2388;53.582;9.962;2023-03-01T03:10:16;3.10;99.90
4749;DHT22;2388;53.582;9.962;2023-03-01T03:12:42;3.10;99.90
4749;DHT22;2388;53.582;9.962;2023-03-01T03:15:09;3.00;99.90
4749;DHT22;2388;53.582;9.962;2023-03-01T03:17:40;3.10;99.90
4749;DHT22;2388;53.582;9.962;2023-03-01T03:20:08;3.10;99.90
4749;DHT22;2388;53.582;9.962;2023-03-01T03:22:38;3.00;99.90
4749;DHT22;2388;53.582;9.962;2023-03-01T03:25:04;3.00;99.90
4749;DHT22;2388;53.582;9.962;2023-03-01T03:27:29;3.10;99.90
4749;DHT22;2388;53.582;9.962;2023-03-01T03:29:57;3.10;99.90
4749;DHT22;2388;53.582;9.962;2023-03-01T03:32:22;3.10;99.90
4749;DHT22;2388;53.582;9.962;2023-03-01T03:34:48;3.10;99.90
4749;DHT22;2388;53.582;9.962;2023-03-01T03:37:14;3.10;99.90
4749;DHT22;2388;53.582;9.962;2023-03-01T03:40:00;3.10;99.90
4749;DHT22;2388;53.582;9.962;2023-03-01T03:42:25;3.10;99.90
4749;DHT22;2388;53.582;9.962;2023-03-01T03:44:51;3.00;99.90
4749;DHT22;2388;53.582;9.962;2023-03-01T03:47:16;3.00;99.90
4749;DHT22;2388;53.582;9.962;2023-03-01T03:49:42;3.00;99.90
4749;DHT22;2388;53.582;9.962;2023-03-01T03:52:08;2.90;99.90
4749;DHT22;2388;53.582;9.962;2023-03-01T03:54:39;2.90;99.90
4749;DHT22;2388;53.582;9.962;2023-03-01T03:57:05;2.90;99.90
4749;DHT22;2388;53.582;9.962;2023-03-01T03:59:31;2.90;99.90
4749;DHT22;2388;53.582;9.962;2023-03-01T04:01:57;2.90;99.90
4749;DHT22;2388;53.582;9.962;2023-03-01T04:04:22;2.90;99.90
4749;DHT22;2388;53.582;9.962;2023-03-01T04:06:48;2.90;99.90
4749;DHT22;2388;53.582;9.962;2023-03-01T04:09:13;2.90;99.90
4749;DHT22;2388;53.582;9.962;2023-03-01T04:11:39;3.00;99.90
4749;DHT22;2388;53.582;9.962;2023-03-01T04:14:04;2.90;99.90
4749;DHT22;2388;53.582;9.962;2023-03-01T04:16:30;2.90;99.90
4749;DHT22;2388;53.582;9.962;2023-03-01T04:18:55;2.90;99.90
4749;DHT22;2388;53.582;9.962;2023-03-01T04:21:22;2.90;99.90
4749;DHT22;2388;53.582;9.962;2023-03-01T04:23:47;3.00;99.90
4749;DHT22;2388;53.582;9.962;2023-03-01T04:26:13;3.00;99.90
4749;DHT22;2388;53.582;9.962;2023-03-01T04:28:41;3.10;99.90
4749;DHT22;2388;53.582;9.962;2023-03-01T04:31:12;3.10;99.90
4749;DHT22;2388;53.582;9.962;2023-03-01T04:33:43;3.00;99.90
4749;DHT22;2388;53.582;9.962;2023-03-01T04:36:09;3.00;99.90
4749;DHT22;2388;53.582;9.962;2023-03-01T04:38:37;3.00;99.90
4749;DHT22;2388;53.582;9.962;2023-03-01T04:41:07;3.00;99.90
4749;DHT22;2388;53.582;9.962;2023-03-01T04:43:34;3.00;99.90
4749;DHT22;2388;53.582;9.962;2023-03-01T04:46:03;3.00;99.90
4749;DHT22;2388;53.582;9.962;2023-03-01T04:48:31;3.10;99.90
4749;DHT22;2388;53.582;9.962;2023-03-01T04:50:58;3.10;99.90
4749;DHT22;2388;53.582;9.962;2023-03-01T04:53:24;3.20;99.90
4749;DHT22;2388;53.582;9.962;2023-03-01T04:55:50;3.20;99.90
4749;DHT22;2388;53.582;9.962;2023-03-01T04:58:16;3.20;99.90
4749;DHT22;2388;53.582;9.962;2023-03-01T05:00:41;3.30;99.90
4749;DHT22;2388;53.582;9.962;2023-03-01T05:03:08;3.30;99.90
4749;DHT22;2388;53.582;9.962;2023-03-01T05:05:36;3.30;99.90
4749;DHT22;2388;53.582;9.962;2023-03-01T05:08:07;3.20;99.90
4749;DHT22;2388;53.582;9.962;2023-03-01T05:10:34;3.20;99.90
4749;DHT22;2388;53.582;9.962;2023-03-01T05:13:02;3.30;99.90
4749;DHT22;2388;53.582;9.962;2023-03-01T05:15:30;3.30;99.90
4749;DHT22;2388;53.582;9.962;2023-03-01T05:17:58;3.30;99.90
4749;DHT22;2388;53.582;9.962;2023-03-01T05:20:25;3.30;99.90
4749;DHT22;2388;53.582;9.962;2023-03-01T05:22:51;3.30;99.90
4749;DHT22;2388;53.582;9.962;2023-03-01T05:25:17;3.30;99.90
4749;DHT22;2388;53.582;9.962;2023-03-01T05:27:43;3.30;99.90
4749;DHT22;2388;53.582;9.962;2023-03-01T05:30:09;3.40;99.90
4749;DHT22;2388;53.582;9.962;2023-03-01T05:32:40;3.40;99.90
4749;DHT22;2388;53.582;9.962;2023-03-01T05:35:06;3.40;99.90
4749;DHT22;2388;53.582;9.962;2023-03-01T05:37:32;3.40;99.90
4749;DHT22;2388;53.582;9.962;2023-03-01T05:39:57;3.40;99.90
4749;DHT22;2388;53.582;9.962;2023-03-01T05:42:23;3.50;99.90
4749;DHT22;2388;53.582;9.962;2023-03-01T05:44:48;3.50;99.90
4749;DHT22;2388;53.582;9.962;2023-03-01T05:47:14;3.50;99.90
4749;DHT22;2388;53.582;9.962;2023-03-01T05:49:39;3.60;99.90
4749;DHT22;2388;53.582;9.962;2023-03-01T05:52:04;3.60;99.90
4749;DHT22;2388;53.582;9.962;2023-03-01T05:54:30;3.50;99.90
4749;DHT22;2388;53.582;9.962;2023-03-01T05:56:56;3.60;99.90
4749;DHT22;2388;53.582;9.962;2023-03-01T05:59:21;3.50;99.90
4749;DHT22;2388;53.582;9.962;2023-03-01T06:01:47;3.50;99.90
4749;DHT22;2388;53.582;9.962;2023-03-01T06:04:12;3.50;99.90
4749;DHT22;2388;53.582;9.962;2023-03-01T06:06:38;3.60;99.90
4749;DHT22;2388;53.582;9.962;2023-03-01T06:09:05;3.60;99.90
4749;DHT22;2388;53.582;9.962;2023-03-01T06:11:34;3.60;99.90
4749;DHT22;2388;53.582;9.962;2023-03-01T06:14:00;3.60;99.90
4749;DHT22;2388;53.582;9.962;2023-03-01T06:16:25;3.60;99.90
4749;DHT22;2388;53.582;9.962;2023-03-01T06:18:50;3.60;99.90
4749;DHT22;2388;53.582;9.962;2023-03-01T06:21:16;3.60;99.90
4749;DHT22;2388;53.582;9.962;2023-03-01T06:23:41;3.60;99.90
4749;DHT22;2388;53.582;9.962;2023-03-01T06:26:08;3.60;99.90
4749;DHT22;2388;53.582;9.962;2023-03-01T06:28:34;3.60;99.90
4749;DHT22;2388;53.582;9.962;2023-03-01T06:31:00;3.50;99.90
4749;DHT22;2388;53.582;9.962;2023-03-01T06:33:25;3.60;99.90
4749;DHT22;2388;53.582;9.962;2023-03-01T06:35:54;3.60;99.90
4749;DHT22;2388;53.582;9.962;2023-03-01T06:38:19;3.60;99.90
4749;DHT22;2388;53.582;9.962;2023-03-01T06:40:45;3.70;99.90
4749;DHT22;2388;53.582;9.962;2023-03-01T06:43:16;3.70;99.90
4749;DHT22;2388;53.582;9.962;2023-03-01T06:45:42;3.70;99.90
4749;DHT22;2388;53.582;9.962;2023-03-01T06:48:08;3.70;99.90
4749;DHT22;2388;53.582;9.962;2023-03-01T06:50:35;3.70;99.90
4749;DHT22;2388;53.582;9.962;2023-03-01T06:53:01;3.70;99.90
4749;DHT22;2388;53.582;9.962;2023-03-01T06:55:27;3.70;99.90
4749;DHT22;2388;53.582;9.962;2023-03-01T06:57:56;3.70;99.90
4749;DHT22;2388;53.582;9.962;2023-03-01T07:00:22;3.80;99.90
4749;DHT22;2388;53.582;9.962;2023-03-01T07:02:48;3.70;99.90
4749;DHT22;2388;53.582;9.962;2023-03-01T07:05:14;3.70;99.90
4749;DHT22;2388;53.582;9.962;2023-03-01T07:07:39;3.70;99.90
4749;DHT22;2388;53.582;9.962;2023-03-01T07:10:05;3.70;99.90
4749;DHT22;2388;53.582;9.962;2023-03-01T07:12:31;3.70;99.90
4749;DHT22;2388;53.582;9.962;2023-03-01T07:14:56;3.70;99.90
4749;DHT22;2388;53.582;9.962;2023-03-01T07:17:22;3.70;99.90
4749;DHT22;2388;53.582;9.962;2023-03-01T07:19:47;3.70;99.90
4749;DHT22;2388;53.582;9.962;2023-03-01T07:22:13;3.70;99.90
4749;DHT22;2388;53.582;9.962;2023-03-01T07:24:38;3.70;99.90
4749;DHT22;2388;53.582;9.962;2023-03-01T07:27:04;3.80;99.90
4749;DHT22;2388;53.582;9.962;2023-03-01T07:29:29;3.80;99.90
4749;DHT22;2388;53.582;9.962;2023-03-01T07:31:55;3.80;99.90
4749;DHT22;2388;53.582;9.962;2023-03-01T07:34:21;3.80;99.90
4749;DHT22;2388;53.582;9.962;2023-03-01T07:36:46;3.80;99.90
4749;DHT22;2388;53.582;9.962;2023-03-01T07:39:12;3.90;99.90
4749;DHT22;2388;53.582;9.962;2023-03-01T07:41:38;3.90;99.90
4749;DHT22;2388;53.582;9.962;2023-03-01T07:44:04;4.00;99.90
4749;DHT22;2388;53.582;9.962;2023-03-01T07:46:29;3.90;99.90
4749;DHT22;2388;53.582;9.962;2023-03-01T07:48:55;3.80;99.90
4749;DHT22;2388;53.582;9.962;2023-03-01T07:51:20;3.90;99.90
4749;DHT22;2388;53.582;9.962;2023-03-01T07:53:47;3.90;99.90
4749;DHT22;2388;53.582;9.962;2023-03-01T07:56:14;3.90;99.90
4749;DHT22;2388;53.582;9.962;2023-03-01T07:58:42;3.90;99.90
4749;DHT22;2388;53.582;9.962;2023-03-01T08:01:14;3.90;99.90
4749;DHT22;2388;53.582;9.962;2023-03-01T08:03:40;3.90;99.90
4749;DHT22;2388;53.582;9.962;2023-03-01T08:06:08;3.80;99.90
4749;DHT22;2388;53.582;9.962;2023-03-01T08:08:34;3.80;99.90
4749;DHT22;2388;53.582;9.962;2023-03-01T08:11:00;3.90;99.90
4749;DHT22;2388;53.582;9.962;2023-03-01T08:13:27;3.90;99.90
4749;DHT22;2388;53.582;9.962;2023-03-01T08:15:53;3.90;99.90
4749;DHT22;2388;53.582;9.962;2023-03-01T08:18:20;4.00;99.90
4749;DHT22;2388;53.582;9.962;2023-03-01T08:20:46;4.00;99.90
4749;DHT22;2388;53.582;9.962;2023-03-01T08:23:11;4.10;99.90
4749;DHT22;2388;53.582;9.962;2023-03-01T08:25:37;4.20;99.90
4749;DHT22;2388;53.582;9.962;2023-03-01T08:28:04;4.10;99.90
4749;DHT22;2388;53.582;9.962;2023-03-01T08:30:30;4.20;99.90
4749;DHT22;2388;53.582;9.962;2023-03-01T08:32:56;4.50;99.90
4749;DHT22;2388;53.582;9.962;2023-03-01T08:35:22;4.70;99.90
4749;DHT22;2388;53.582;9.962;2023-03-01T08:37:48;4.80;99.90
4749;DHT22;2388;53.582;9.962;2023-03-01T08:40:13;4.80;99.90
4749;DHT22;2388;53.582;9.962;2023-03-01T08:42:40;4.90;99.90
4749;DHT22;2388;53.582;9.962;2023-03-01T08:45:09;5.10;99.90
4749;DHT22;2388;53.582;9.962;2023-03-01T08:47:35;5.30;99.90
4749;DHT22;2388;53.582;9.962;2023-03-01T08:50:00;5.40;99.90
4749;DHT22;2388;53.582;9.962;2023-03-01T08:52:26;5.40;99.90
4749;DHT22;2388;53.582;9.962;2023-03-01T08:54:52;5.40;99.90
4749;DHT22;2388;53.582;9.962;2023-03-01T08:57:18;5.30;99.90
4749;DHT22;2388;53.582;9.962;2023-03-01T08:59:44;5.40;99.90
4749;DHT22;2388;53.582;9.962;2023-03-01T09:02:13;5.30;99.90
4749;DHT22;2388;53.582;9.962;2023-03-01T09:04:39;5.30;99.90
4749;DHT22;2388;53.582;9.962;2023-03-01T09:07:05;5.40;99.90
4749;DHT22;2388;53.582;9.962;2023-03-01T09:09:30;5.40;99.90
4749;DHT22;2388;53.582;9.962;2023-03-01T09:11:56;5.40;99.90
4749;DHT22;2388;53.582;9.962;2023-03-01T09:14:22;5.40;99.90
4749;DHT22;2388;53.582;9.962;2023-03-01T09:16:47;5.40;99.90
4749;DHT22;2388;53.582;9.962;2023-03-01T09:19:13;5.40;99.90
4749;DHT22;2388;53.582;9.962;2023-03-01T09:21:38;5.40;99.90
4749;DHT22;2388;53.582;9.962;2023-03-01T09:24:04;5.30;99.90
4749;DHT22;2388;53.582;9.962;2023-03-01T09:26:30;5.30;99.90
4749;DHT22;2388;53.582;9.962;2023-03-01T09:28:56;5.30;99.90
4749;DHT22;2388;53.582;9.962;2023-03-01T09:31:22;5.30;99.90
4749;DHT22;2388;53.582;9.962;2023-03-01T09:33:51;5.30;99.90
4749;DHT22;2388;53.582;9.962;2023-03-01T09:36:19;5.30;99.90
4749;DHT22;2388;53.582;9.962;2023-03-01T09:38:45;5.30;99.90
4749;DHT22;2388;53.582;9.962;2023-03-01T09:41:38;5.30;99.90
4749;DHT22;2388;53.582;9.962;2023-03-01T09:47:02;5.40;99.90
4749;DHT22;2388;53.582;9.962;2023-03-01T09:49:30;5.40;99.90
4749;DHT22;2388;53.582;9.962;2023-03-01T09:54:49;5.40;99.90
4749;DHT22;2388;53.582;9.962;2023-03-01T09:57:18;5.40;99.90
4749;DHT22;2388;53.582;9.962;2023-03-01T10:00:03;5.40;99.90
4749;DHT22;2388;53.582;9.962;2023-03-01T10:05:37;5.50;99.90
4749;DHT22;2388;53.582;9.962;2023-03-01T10:10:38;5.50;99.90
4749;DHT22;2388;53.582;9.962;2023-03-01T10:15:56;5.50;99.90
4749;DHT22;2388;53.582;9.962;2023-03-01T10:18:26;5.50;99.90
4749;DHT22;2388;53.582;9.962;2023-03-01T10:20:59;5.50;99.90
4749;DHT22;2388;53.582;9.962;2023-03-01T10:23:26;5.50;99.90
4749;DHT22;2388;53.582;9.962;2023-03-01T10:26:17;5.50;99.90
4749;DHT22;2388;53.582;9.962;2023-03-01T10:29:07;5.50;99.90
4749;DHT22;2388;53.582;9.962;2023-03-01T10:31:51;5.60;99.90
4749;DHT22;2388;53.582;9.962;2023-03-01T10:34:27;5.60;99.90
4749;DHT22;2388;53.582;9.962;2023-03-01T10:36:56;5.60;99.90
4749;DHT22;2388;53.582;9.962;2023-03-01T10:39:24;5.60;99.90
4749;DHT22;2388;53.582;9.962;2023-03-01T10:42:05;5.70;99.90
4749;DHT22;2388;53.582;9.962;2023-03-01T10:47:19;5.80;99.90
4749;DHT22;2388;53.582;9.962;2023-03-01T10:52:21;5.90;99.90
4749;DHT22;2388;53.582;9.962;2023-03-01T10:54:53;5.90;99.90
4749;DHT22;2388;53.582;9.962;2023-03-01T10:57:33;6.00;99.90
4749;DHT22;2388;53.582;9.962;2023-03-01T11:03:00;6.10;99.90
4749;DHT22;2388;53.582;9.962;2023-03-01T11:05:26;6.10;99.90
4749;DHT22;2388;53.582;9.962;2023-03-01T11:07:56;6.20;99.90
4749;DHT22;2388;53.582;9.962;2023-03-01T11:10:28;6.30;99.90
4749;DHT22;2388;53.582;9.962;2023-03-01T11:13:26;6.30;99.90
4749;DHT22;2388;53.582;9.962;2023-03-01T11:16:27;6.40;99.90
4749;DHT22;2388;53.582;9.962;2023-03-01T11:21:54;7.00;99.90
4749;DHT22;2388;53.582;9.962;2023-03-01T11:24:45;7.70;99.90
4749;DHT22;2388;53.582;9.962;2023-03-01T11:27:17;8.50;99.90
4749;DHT22;2388;53.582;9.962;2023-03-01T11:29:56;9.40;99.90
4749;DHT22;2388;53.582;9.962;2023-03-01T11:32:25;9.90;99.90
4749;DHT22;2388;53.582;9.962;2023-03-01T11:35:10;9.90;99.90
4749;DHT22;2388;53.582;9.962;2023-03-01T11:40:25;9.00;99.90
4749;DHT22;2388;53.582;9.962;2023-03-01T11:45:33;8.50;99.90
4749;DHT22;2388;53.582;9.962;2023-03-01T11:51:11;8.40;99.90
4749;DHT22;2388;53.582;9.962;2023-03-01T11:56:38;8.10;99.90
4749;DHT22;2388;53.582;9.962;2023-03-01T11:59:25;8.00;99.90
4749;DHT22;2388;53.582;9.962;2023-03-01T12:04:34;8.00;99.90
4749;DHT22;2388;53.582;9.962;2023-03-01T12:07:17;8.00;99.90
4749;DHT22;2388;53.582;9.962;2023-03-01T12:10:19;7.90;99.90
4749;DHT22;2388;53.582;9.962;2023-03-01T12:16:07;8.20;99.90
4749;DHT22;2388;53.582;9.962;2023-03-01T12:26:34;8.70;99.90
4749;DHT22;2388;53.582;9.962;2023-03-01T12:32:00;9.00;99.90
4749;DHT22;2388;53.582;9.962;2023-03-01T12:43:27;9.60;99.90
4749;DHT22;2388;53.582;9.962;2023-03-01T12:49:08;9.80;99.90
4749;DHT22;2388;53.582;9.962;2023-03-01T12:51:37;9.90;99.90
4749;DHT22;2388;53.582;9.962;2023-03-01T12:54:20;9.90;99.90
4749;DHT22;2388;53.582;9.962;2023-03-01T12:56:48;9.90;99.90
4749;DHT22;2388;53.582;9.962;2023-03-01T12:59:48;10.10;99.90
4749;DHT22;2388;53.582;9.962;2023-03-01T13:02:24;9.90;99.90
4749;DHT22;2388;53.582;9.962;2023-03-01T13:05:01;10.00;99.90
4749;DHT22;2388;53.582;9.962;2023-03-01T13:07:53;10.10;99.90
4749;DHT22;2388;53.582;9.962;2023-03-01T13:10:29;10.10;99.90
4749;DHT22;2388;53.582;9.962;2023-03-01T13:15:35;10.20;99.90
4749;DHT22;2388;53.582;9.962;2023-03-01T13:18:04;10.10;99.90
4749;DHT22;2388;53.582;9.962;2023-03-01T13:20:54;10.10;99.90
4749;DHT22;2388;53.582;9.962;2023-03-01T13:26:17;10.00;99.90
4749;DHT22;2388;53.582;9.962;2023-03-01T13:28:50;9.90;99.90
4749;DHT22;2388;53.582;9.962;2023-03-01T13:33:52;9.80;99.90
4749;DHT22;2388;53.582;9.962;2023-03-01T13:39:33;9.60;99.90
4749;DHT22;2388;53.582;9.962;2023-03-01T13:42:25;9.50;99.90
4749;DHT22;2388;53.582;9.962;2023-03-01T13:44:49;9.50;99.90
4749;DHT22;2388;53.582;9.962;2023-03-01T13:47:16;9.40;99.90
4749;DHT22;2388;53.582;9.962;2023-03-01T13:49:53;9.40;99.90
4749;DHT22;2388;53.582;9.962;2023-03-01T13:52:34;9.40;99.90
4749;DHT22;2388;53.582;9.962;2023-03-01T13:55:02;9.30;99.90
4749;DHT22;2388;53.582;9.962;2023-03-01T13:57:33;9.30;99.90
4749;DHT22;2388;53.582;9.962;2023-03-01T13:59:59;9.30;99.90
4749;DHT22;2388;53.582;9.962;2023-03-01T14:02:25;9.30;99.90
4749;DHT22;2388;53.582;9.962;2023-03-01T14:05:00;9.40;99.90
4749;DHT22;2388;53.582;9.962;2023-03-01T14:07:27;9.40;99.90
4749;DHT22;2388;53.582;9.962;2023-03-01T14:10:03;9.40;99.90
4749;DHT22;2388;53.582;9.962;2023-03-01T14:12:43;9.40;99.90
4749;DHT22;2388;53.582;9.962;2023-03-01T14:15:34;9.40;99.90
4749;DHT22;2388;53.582;9.962;2023-03-01T14:18:12;9.50;99.90
4749;DHT22;2388;53.582;9.962;2023-03-01T14:20:42;9.50;99.90
4749;DHT22;2388;53.582;9.962;2023-03-01T14:23:28;9.50;99.90
4749;DHT22;2388;53.582;9.962;2023-03-01T14:25:57;9.50;99.90
4749;DHT22;2388;53.582;9.962;2023-03-01T14:28:30;9.50;99.90
4749;DHT22;2388;53.582;9.962;2023-03-01T14:30:59;9.60;99.90
4749;DHT22;2388;53.582;9.962;2023-03-01T14:33:30;9.60;99.90
4749;DHT22;2388;53.582;9.962;2023-03-01T14:36:12;9.60;99.90
4749;DHT22;2388;53.582;9.962;2023-03-01T14:38:46;9.70;99.90
4749;DHT22;2388;53.582;9.962;2023-03-01T14:41:14;9.70;99.90
4749;DHT22;2388;53.582;9.962;2023-03-01T14:43:56;9.60;99.90
4749;DHT22;2388;53.582;9.962;2023-03-01T14:46:33;9.50;99.90
4749;DHT22;2388;53.582;9.962;2023-03-01T14:49:12;9.40;99.90
4749;DHT22;2388;53.582;9.962;2023-03-01T14:51:40;9.20;99.90
4749;DHT22;2388;53.582;9.962;2023-03-01T14:54:40;9.10;99.90
4749;DHT22;2388;53.582;9.962;2023-03-01T14:57:18;9.10;99.90
4749;DHT22;2388;53.582;9.962;2023-03-01T14:59:45;9.00;99.90
4749;DHT22;2388;53.582;9.962;2023-03-01T15:02:15;8.90;99.90
4749;DHT22;2388;53.582;9.962;2023-03-01T15:04:51;8.70;99.90
4749;DHT22;2388;53.582;9.962;2023-03-01T15:07:17;8.60;99.90
4749;DHT22;2388;53.582;9.962;2023-03-01T15:09:43;8.60;99.90
4749;DHT22;2388;53.582;9.962;2023-03-01T15:12:25;8.60;99.90
4749;DHT22;2388;53.582;9.962;2023-03-01T15:14:51;8.50;99.90
4749;DHT22;2388;53.582;9.962;2023-03-01T15:17:33;8.50;99.90
4749;DHT22;2388;53.582;9.962;2023-03-01T15:20:03;8.50;99.90
4749;DHT22;2388;53.582;9.962;2023-03-01T15:22:29;8.40;99.90
4749;DHT22;2388;53.582;9.962;2023-03-01T15:24:55;8.50;99.90
4749;DHT22;2388;53.582;9.962;2023-03-01T15:27:23;8.40;99.90
4749;DHT22;2388;53.582;9.962;2023-03-01T15:29:55;8.40;99.90
4749;DHT22;2388;53.582;9.962;2023-03-01T15:32:30;8.40;99.90
4749;DHT22;2388;53.582;9.962;2023-03-01T15:34:57;8.30;99.90
4749;DHT22;2388;53.582;9.962;2023-03-01T15:37:44;8.30;99.90
4749;DHT22;2388;53.582;9.962;2023-03-01T15:40:20;8.30;99.90
4749;DHT22;2388;53.582;9.962;2023-03-01T15:42:46;8.20;99.90
4749;DHT22;2388;53.582;9.962;2023-03-01T15:47:47;8.20;99.90
4749;DHT22;2388;53.582;9.962;2023-03-01T15:50:28;8.10;99.90
4749;DHT22;2388;53.582;9.962;2023-03-01T15:52:55;8.10;99.90
4749;DHT22;2388;53.582;9.962;2023-03-01T15:55:32;8.10;99.90
4749;DHT22;2388;53.582;9.962;2023-03-01T16:00:30;8.00;99.90
4749;DHT22;2388;53.582;9.962;2023-03-01T16:02:56;8.00;99.90
4749;DHT22;2388;53.582;9.962;2023-03-01T16:05:23;7.90;99.90
4749;DHT22;2388;53.582;9.962;2023-03-01T16:07:49;7.90;99.90
4749;DHT22;2388;53.582;9.962;2023-03-01T16:10:15;7.90;99.90
4749;DHT22;2388;53.582;9.962;2023-03-01T16:12:41;7.90;99.90
4749;DHT22;2388;53.582;9.962;2023-03-01T16:15:22;7.90;99.90
4749;DHT22;2388;53.582;9.962;2023-03-01T16:17:48;7.90;99.90
4749;DHT22;2388;53.582;9.962;2023-03-01T16:20:13;7.80;99.90
4749;DHT22;2388;53.582;9.962;2023-03-01T16:22:42;7.80;99.90
4749;DHT22;2388;53.582;9.962;2023-03-01T16:25:12;7.70;99.90
4749;DHT22;2388;53.582;9.962;2023-03-01T16:27:38;7.70;99.90
4749;DHT22;2388;53.582;9.962;2023-03-01T16:30:05;7.70;99.90
4749;DHT22;2388;53.582;9.962;2023-03-01T16:32:31;7.70;99.90
4749;DHT22;2388;53.582;9.962;2023-03-01T16:34:57;7.60;99.90
4749;DHT22;2388;53.582;9.962;2023-03-01T16:37:22;7.60;99.90
4749;DHT22;2388;53.582;9.962;2023-03-01T16:39:48;7.50;99.90
4749;DHT22;2388;53.582;9.962;2023-03-01T16:42:16;7.50;99.90
4749;DHT22;2388;53.582;9.962;2023-03-01T16:44:41;7.50;99.90
4749;DHT22;2388;53.582;9.962;2023-03-01T16:47:07;7.40;99.90
4749;DHT22;2388;53.582;9.962;2023-03-01T16:49:32;7.40;99.90
4749;DHT22;2388;53.582;9.962;2023-03-01T16:51:58;7.40;99.90
4749;DHT22;2388;53.582;9.962;2023-03-01T16:54:24;7.40;99.90
4749;DHT22;2388;53.582;9.962;2023-03-01T16:56:50;7.30;99.90
4749;DHT22;2388;53.582;9.962;2023-03-01T16:59:15;7.30;99.90
4749;DHT22;2388;53.582;9.962;2023-03-01T17:01:41;7.30;99.90
4749;DHT22;2388;53.582;9.962;2023-03-01T17:04:10;7.20;99.90
4749;DHT22;2388;53.582;9.962;2023-03-01T17:06:36;7.20;99.90
4749;DHT22;2388;53.582;9.962;2023-03-01T17:09:02;7.20;99.90
4749;DHT22;2388;53.582;9.962;2023-03-01T17:11:28;7.10;99.90
4749;DHT22;2388;53.582;9.962;2023-03-01T17:13:53;7.10;99.90
4749;DHT22;2388;53.582;9.962;2023-03-01T17:16:20;7.00;99.90
4749;DHT22;2388;53.582;9.962;2023-03-01T17:18:46;7.00;99.90
4749;DHT22;2388;53.582;9.962;2023-03-01T17:21:12;7.00;99.90
4749;DHT22;2388;53.582;9.962;2023-03-01T17:23:40;7.00;99.90
4749;DHT22;2388;53.582;9.962;2023-03-01T17:26:06;6.90;99.90
4749;DHT22;2388;53.582;9.962;2023-03-01T17:28:33;6.90;99.90
4749;DHT22;2388;53.582;9.962;2023-03-01T17:31:00;6.80;99.90
4749;DHT22;2388;53.582;9.962;2023-03-01T17:33:26;6.80;99.90
4749;DHT22;2388;53.582;9.962;2023-03-01T17:35:51;6.80;99.90
4749;DHT22;2388;53.582;9.962;2023-03-01T17:38:17;6.90;99.90
4749;DHT22;2388;53.582;9.962;2023-03-01T17:40:43;6.90;99.90
4749;DHT22;2388;53.582;9.962;2023-03-01T17:43:13;6.90;99.90
4749;DHT22;2388;53.582;9.962;2023-03-01T17:45:39;6.90;99.90
4749;DHT22;2388;53.582;9.962;2023-03-01T17:48:06;6.90;99.90
4749;DHT22;2388;53.582;9.962;2023-03-01T17:50:32;6.80;99.90
4749;DHT22;2388;53.582;9.962;2023-03-01T17:52:58;6.80;99.90
4749;DHT22;2388;53.582;9.962;2023-03-01T17:55:24;6.70;99.90
4749;DHT22;2388;53.582;9.962;2023-03-01T17:57:49;6.70;99.90